createdAt,value
2016-12-27T00:00:45.564Z,14.18
2016-12-27T00:01:56.157Z,14.1
2016-12-27T00:03:06.718Z,14.09
2016-12-27T00:04:17.619Z,14.06
2016-12-27T00:05:28.180Z,14.18
2016-12-27T00:06:39.133Z,14.07
2016-12-27T00:07:49.695Z,14.15
2016-12-27T00:09:00.603Z,14.1
2016-12-27T00:10:11.513Z,14.18
2016-12-27T00:11:22.418Z,14.09
2016-12-27T00:12:33.387Z,14.1
2016-12-27T00:13:44.284Z,14.17
2016-12-27T00:14:55.198Z,14.15
2016-12-27T00:16:05.790Z,14.15
2016-12-27T00:17:16.692Z,14.1
2016-12-27T00:18:27.305Z,14.2
2016-12-27T00:19:37.874Z,14.12
2016-12-27T00:20:48.431Z,14.14
2016-12-27T00:21:58.993Z,14.12
2016-12-27T00:23:09.566Z,14.06
2016-12-27T00:24:20.519Z,14.14
2016-12-27T00:25:31.080Z,14.1
2016-12-27T00:26:41.985Z,14.15
2016-12-27T00:27:52.894Z,14.18
2016-12-27T00:29:03.451Z,14.07
2016-12-27T00:30:14.056Z,14.12
2016-12-27T00:31:24.973Z,14.14
2016-12-27T00:32:35.882Z,14.1
2016-12-27T00:33:46.447Z,14.04
2016-12-27T00:34:57.389Z,14.1
2016-12-27T00:36:08.001Z,14.17
2016-12-27T00:37:18.222Z,14.12
2016-12-27T00:38:28.780Z,14.04
2016-12-27T00:39:39.352Z,14.12
2016-12-27T00:40:50.285Z,14.09
2016-12-27T00:42:00.894Z,14.06
2016-12-27T00:43:11.460Z,14.12
2016-12-27T00:44:22.365Z,14.1
2016-12-27T00:45:32.938Z,14.1
2016-12-27T00:46:43.160Z,14.09
2016-12-27T00:47:53.768Z,14.04
2016-12-27T00:49:04.341Z,14.12
2016-12-27T00:50:14.903Z,14.04
2016-12-27T00:51:25.812Z,14.09
2016-12-27T00:52:36.708Z,14.07
2016-12-27T00:53:47.666Z,14.1
2016-12-27T00:54:58.219Z,14.06
2016-12-27T00:56:08.788Z,14.12
2016-12-27T00:57:19.697Z,14.04
2016-12-27T00:58:30.610Z,14.02
2016-12-27T00:59:41.220Z,14.1
2016-12-27T01:00:52.153Z,14.18
2016-12-27T01:02:02.718Z,14.03
2016-12-27T01:03:13.623Z,14.1
2016-12-27T01:04:24.184Z,14.15
2016-12-27T01:05:34.801Z,14.15
2016-12-27T01:06:45.367Z,14.1
2016-12-27T01:07:56.272Z,14.15
2016-12-27T01:09:06.481Z,14.09
2016-12-27T01:10:17.390Z,14.21
2016-12-27T01:11:28.347Z,14.09
2016-12-27T01:12:38.912Z,14.1
2016-12-27T01:13:49.481Z,14.12
2016-12-27T01:15:00.042Z,14.09
2016-12-27T01:16:10.956Z,14.1
2016-12-27T01:17:21.913Z,14.07
2016-12-27T01:18:32.811Z,14.1
2016-12-27T01:19:43.380Z,14.06
2016-12-27T01:20:54.000Z,14.12
2016-12-27T01:22:04.566Z,14.15
2016-12-27T01:23:15.172Z,14.09
2016-12-27T01:24:26.080Z,14.1
2016-12-27T01:25:36.645Z,14.03
2016-12-27T01:26:47.234Z,14.04
2016-12-27T01:27:58.148Z,14.07
2016-12-27T01:29:09.105Z,14.12
2016-12-27T01:30:20.014Z,14.07
2016-12-27T01:31:30.575Z,14.03
2016-12-27T01:32:41.149Z,14.06
2016-12-27T01:33:51.714Z,14
2016-12-27T01:35:02.675Z,14.12
2016-12-27T01:36:13.589Z,14.1
2016-12-27T01:37:24.505Z,14.14
2016-12-27T01:38:35.412Z,14.09
2016-12-27T01:39:45.968Z,14.09
2016-12-27T01:40:56.929Z,14.07
2016-12-27T01:42:07.482Z,14.06
2016-12-27T01:43:18.400Z,14.06
2016-12-27T01:44:29.337Z,14.14
2016-12-27T01:45:39.906Z,14.2
2016-12-27T01:46:50.867Z,14.03
2016-12-27T01:48:01.088Z,14.12
2016-12-27T01:49:11.997Z,14.17
2016-12-27T01:50:22.563Z,14.09
2016-12-27T01:51:33.148Z,14.07
2016-12-27T01:52:43.769Z,14.14
2016-12-27T01:53:54.347Z,14.07
2016-12-27T01:55:04.916Z,14.1
2016-12-27T01:56:15.137Z,14.1
2016-12-27T01:57:25.710Z,14.09
2016-12-27T01:58:36.319Z,14.09
2016-12-27T01:59:46.872Z,14.02
2016-12-27T02:00:57.777Z,14.1
2016-12-27T02:02:08.375Z,14.2
2016-12-27T02:03:19.280Z,14.03
2016-12-27T02:04:29.933Z,14
2016-12-27T02:05:40.850Z,14.07
2016-12-27T02:06:51.760Z,14.04
2016-12-27T02:08:02.349Z,14.04
2016-12-27T02:09:12.914Z,14.09
2016-12-27T02:10:23.184Z,14.15
2016-12-27T02:11:33.749Z,14.02
2016-12-27T02:12:44.302Z,14.09
2016-12-27T02:13:54.863Z,14.03
2016-12-27T02:15:05.453Z,14.12
2016-12-27T02:16:16.065Z,14.07
2016-12-27T02:17:26.623Z,14.02
2016-12-27T02:18:37.532Z,14.12
2016-12-27T02:19:48.441Z,14
2016-12-27T02:20:59.340Z,14.12
2016-12-27T02:22:10.296Z,14.12
2016-12-27T02:23:20.861Z,14.06
2016-12-27T02:24:31.418Z,13.99
2016-12-27T02:25:41.987Z,14.02
2016-12-27T02:26:52.557Z,14.06
2016-12-27T02:28:03.170Z,14.1
2016-12-27T02:29:13.731Z,14.15
2016-12-27T02:30:24.296Z,14.17
2016-12-27T02:31:35.210Z,14
2016-12-27T02:32:45.423Z,14.03
2016-12-27T02:33:55.344Z,14.07
2016-12-27T02:35:06.261Z,14.04
2016-12-27T02:36:17.170Z,14.06
2016-12-27T02:37:27.387Z,14.03
2016-12-27T02:38:37.953Z,13.99
2016-12-27T02:39:48.910Z,14.02
2016-12-27T02:40:59.459Z,14.04
2016-12-27T02:42:10.373Z,14.04
2016-12-27T02:43:21.278Z,14.09
2016-12-27T02:44:32.192Z,14.04
2016-12-27T02:45:43.148Z,14
2016-12-27T02:46:53.749Z,14.04
2016-12-27T02:48:03.974Z,14.03
2016-12-27T02:49:14.544Z,14.02
2016-12-27T02:50:25.453Z,14.04
2016-12-27T02:51:36.166Z,13.99
2016-12-27T02:52:47.067Z,14.03
2016-12-27T02:53:57.640Z,14.07
2016-12-27T02:55:08.541Z,14
2016-12-27T02:56:19.126Z,14.04
2016-12-27T02:57:29.735Z,14.12
2016-12-27T02:58:40.292Z,13.95
2016-12-27T02:59:51.218Z,14.04
2016-12-27T03:01:01.782Z,14.04
2016-12-27T03:02:12.700Z,14.12
2016-12-27T03:03:23.744Z,14
2016-12-27T03:04:34.318Z,14.02
2016-12-27T03:05:44.899Z,13.99
2016-12-27T03:06:55.812Z,14.03
2016-12-27T03:08:06.377Z,14.09
2016-12-27T03:09:17.338Z,14.09
2016-12-27T03:10:27.895Z,14
2016-12-27T03:11:38.456Z,14.04
2016-12-27T03:12:49.361Z,13.99
2016-12-27T03:13:59.938Z,14.09
2016-12-27T03:15:10.600Z,14
2016-12-27T03:16:21.153Z,14.07
2016-12-27T03:17:31.718Z,14.04
2016-12-27T03:18:42.279Z,14.04
2016-12-27T03:19:53.180Z,14.09
2016-12-27T03:21:04.129Z,14.09
2016-12-27T03:22:14.702Z,14.07
2016-12-27T03:23:25.640Z,14.02
2016-12-27T03:24:36.212Z,14
2016-12-27T03:25:46.774Z,14.03
2016-12-27T03:26:57.886Z,14.02
2016-12-27T03:28:08.804Z,13.99
2016-12-27T03:29:19.401Z,14.12
2016-12-27T03:30:30.310Z,14
2016-12-27T03:31:41.223Z,14.02
2016-12-27T03:32:51.868Z,14.02
2016-12-27T03:34:02.442Z,14.04
2016-12-27T03:35:13.010Z,14
2016-12-27T03:36:23.607Z,14
2016-12-27T03:37:34.508Z,14.02
2016-12-27T03:38:45.122Z,13.97
2016-12-27T03:39:55.715Z,14.07
2016-12-27T03:41:06.319Z,13.95
2016-12-27T03:42:16.540Z,14.06
2016-12-27T03:43:27.469Z,13.99
2016-12-27T03:44:38.419Z,13.96
2016-12-27T03:45:49.328Z,13.97
2016-12-27T03:46:59.892Z,13.96
2016-12-27T03:48:10.806Z,13.99
2016-12-27T03:49:21.715Z,13.95
2016-12-27T03:50:32.324Z,13.96
2016-12-27T03:51:43.233Z,13.96
2016-12-27T03:52:53.790Z,14.03
2016-12-27T03:54:04.687Z,14.03
2016-12-27T03:55:15.592Z,13.91
2016-12-27T03:56:26.218Z,13.99
2016-12-27T03:57:37.127Z,14.03
2016-12-27T03:58:48.039Z,13.95
2016-12-27T03:59:58.612Z,14.04
2016-12-27T04:01:09.525Z,13.99
2016-12-27T04:02:20.234Z,13.96
2016-12-27T04:03:30.792Z,13.96
2016-12-27T04:04:41.700Z,14
2016-12-27T04:05:52.261Z,14.04
2016-12-27T04:07:03.166Z,14.07
2016-12-27T04:08:14.124Z,14.02
2016-12-27T04:09:24.693Z,14.02
2016-12-27T04:10:35.595Z,13.99
2016-12-27T04:11:46.511Z,14.09
2016-12-27T04:12:57.072Z,14.02
2016-12-27T04:14:08.237Z,14.03
2016-12-27T04:15:19.155Z,14.06
2016-12-27T04:16:30.064Z,14
2016-12-27T04:17:40.973Z,14
2016-12-27T04:18:51.543Z,14
2016-12-27T04:20:02.496Z,14
2016-12-27T04:21:13.393Z,13.97
2016-12-27T04:22:23.955Z,14.02
2016-12-27T04:23:34.868Z,13.95
2016-12-27T04:24:45.773Z,14
2016-12-27T04:25:56.383Z,13.96
2016-12-27T04:27:07.293Z,14.03
2016-12-27T04:28:18.194Z,13.99
2016-12-27T04:29:28.763Z,14
2016-12-27T04:30:39.664Z,14.03
2016-12-27T04:31:50.626Z,13.92
2016-12-27T04:33:01.555Z,13.97
2016-12-27T04:34:12.465Z,14.03
2016-12-27T04:35:23.035Z,13.91
2016-12-27T04:36:33.599Z,14.06
2016-12-27T04:37:44.216Z,13.92
2016-12-27T04:38:54.786Z,13.92
2016-12-27T04:40:05.359Z,14.06
2016-12-27T04:41:16.265Z,13.96
2016-12-27T04:42:26.486Z,14.04
2016-12-27T04:43:37.107Z,14.09
2016-12-27T04:44:48.012Z,13.96
2016-12-27T04:45:58.576Z,14.04
2016-12-27T04:47:09.503Z,14.04
2016-12-27T04:48:20.072Z,14.03
2016-12-27T04:49:31.026Z,14.06
2016-12-27T04:50:41.595Z,14.04
2016-12-27T04:51:52.152Z,13.97
2016-12-27T04:53:03.061Z,13.89
2016-12-27T04:54:13.631Z,14.03
2016-12-27T04:55:24.592Z,13.96
2016-12-27T04:56:35.157Z,14.02
2016-12-27T04:57:46.070Z,13.96
2016-12-27T04:58:56.980Z,13.97
2016-12-27T05:00:07.565Z,14.03
2016-12-27T05:01:18.202Z,13.91
2016-12-27T05:02:28.767Z,14
2016-12-27T05:03:39.676Z,14.02
2016-12-27T05:04:50.586Z,13.96
2016-12-27T05:06:01.143Z,13.96
2016-12-27T05:07:12.105Z,14.04
2016-12-27T05:08:22.669Z,14.03
2016-12-27T05:09:33.574Z,14.04
2016-12-27T05:10:44.479Z,14.09
2016-12-27T05:11:55.044Z,14.07
2016-12-27T05:13:06.001Z,13.91
2016-12-27T05:14:16.907Z,14.04
2016-12-27T05:15:27.815Z,13.92
2016-12-27T05:16:38.725Z,14.06
2016-12-27T05:17:49.290Z,13.89
2016-12-27T05:18:59.555Z,14.03
2016-12-27T05:20:10.467Z,14.03
2016-12-27T05:21:21.041Z,14.06
2016-12-27T05:22:31.942Z,14.06
2016-12-27T05:23:42.539Z,14.02
2016-12-27T05:24:53.508Z,14.03
2016-12-27T05:26:04.426Z,13.96
2016-12-27T05:27:15.343Z,14.02
2016-12-27T05:28:25.556Z,13.96
2016-12-27T05:29:36.469Z,13.96
2016-12-27T05:30:47.078Z,14.02
2016-12-27T05:31:57.647Z,14.02
2016-12-27T05:33:08.220Z,14.06
2016-12-27T05:34:18.778Z,13.96
2016-12-27T05:35:29.339Z,14.03
2016-12-27T05:36:39.952Z,13.96
2016-12-27T05:37:50.857Z,13.91
2016-12-27T05:39:01.778Z,14.02
2016-12-27T05:40:12.343Z,14.04
2016-12-27T05:41:23.248Z,13.99
2016-12-27T05:42:34.202Z,14.03
2016-12-27T05:43:45.118Z,13.88
2016-12-27T05:44:55.676Z,14.02
2016-12-27T05:46:06.581Z,14.02
2016-12-27T05:47:17.493Z,13.95
2016-12-27T05:48:28.107Z,14.09
2016-12-27T05:49:38.688Z,14.02
2016-12-27T05:50:49.594Z,13.99
2016-12-27T05:52:00.527Z,14
2016-12-27T05:53:11.427Z,14.03
2016-12-27T05:54:22.380Z,13.96
2016-12-27T05:55:32.606Z,14
2016-12-27T05:56:43.163Z,14.09
2016-12-27T05:57:53.732Z,14.04
2016-12-27T05:59:04.638Z,13.96
2016-12-27T06:00:15.595Z,14.02
2016-12-27T06:01:26.164Z,13.91
2016-12-27T06:02:37.069Z,14.07
2016-12-27T06:03:47.987Z,14.02
2016-12-27T06:04:58.893Z,14.03
2016-12-27T06:06:09.511Z,13.97
2016-12-27T06:07:20.103Z,14.07
2016-12-27T06:08:30.684Z,14.06
2016-12-27T06:09:41.250Z,14
2016-12-27T06:10:51.827Z,14.04
2016-12-27T06:12:02.780Z,13.99
2016-12-27T06:13:13.349Z,14.03
2016-12-27T06:14:24.275Z,13.95
2016-12-27T06:15:35.180Z,13.99
2016-12-27T06:16:45.386Z,14.03
2016-12-27T06:17:56.343Z,13.95
2016-12-27T06:19:06.908Z,13.99
2016-12-27T06:20:17.806Z,14.02
2016-12-27T06:21:28.363Z,14
2016-12-27T06:22:38.933Z,14
2016-12-27T06:23:49.202Z,14.02
2016-12-27T06:25:00.107Z,14.02
2016-12-27T06:26:11.032Z,14.04
2016-12-27T06:27:21.934Z,14.03
2016-12-27T06:28:32.504Z,14.03
2016-12-27T06:29:43.461Z,14
2016-12-27T06:30:54.390Z,14.02
2016-12-27T06:32:04.963Z,14.07
2016-12-27T06:33:15.880Z,14.03
2016-12-27T06:34:26.782Z,13.96
2016-12-27T06:35:37.454Z,14.07
2016-12-27T06:36:48.364Z,13.99
2016-12-27T06:37:59.278Z,13.99
2016-12-27T06:39:10.183Z,14.07
2016-12-27T06:40:21.089Z,14
2016-12-27T06:41:31.706Z,13.99
2016-12-27T06:42:42.615Z,14.04
2016-12-27T06:43:53.516Z,13.99
2016-12-27T06:45:04.430Z,14.04
2016-12-27T06:46:15.335Z,14.06
2016-12-27T06:47:26.288Z,14
2016-12-27T06:48:37.197Z,13.97
2016-12-27T06:49:48.099Z,14.04
2016-12-27T06:50:58.656Z,13.95
2016-12-27T06:52:09.578Z,13.97
2016-12-27T06:53:20.190Z,13.99
2016-12-27T06:54:31.088Z,14.02
2016-12-27T06:55:42.001Z,14.04
2016-12-27T06:56:52.554Z,14
2016-12-27T06:58:03.127Z,14.03
2016-12-27T06:59:14.092Z,14
2016-12-27T07:00:24.659Z,13.92
2016-12-27T07:01:35.567Z,14
2016-12-27T07:02:46.475Z,13.97
2016-12-27T07:03:57.032Z,14.07
2016-12-27T07:05:07.750Z,13.99
2016-12-27T07:06:18.667Z,13.99
2016-12-27T07:07:29.232Z,14.03
2016-12-27T07:08:39.797Z,14.04
2016-12-27T07:09:50.698Z,14.02
2016-12-27T07:11:01.659Z,13.99
2016-12-27T07:12:12.224Z,14
2016-12-27T07:13:23.130Z,14.04
2016-12-27T07:14:34.047Z,13.97
2016-12-27T07:15:44.955Z,13.99
2016-12-27T07:16:55.909Z,13.95
2016-12-27T07:18:06.470Z,13.97
2016-12-27T07:19:17.043Z,13.89
2016-12-27T07:20:27.608Z,14.03
2016-12-27T07:21:38.169Z,13.91
2016-12-27T07:22:49.130Z,14.06
2016-12-27T07:24:00.060Z,14.03
2016-12-27T07:25:10.629Z,13.95
2016-12-27T07:26:21.534Z,14.07
2016-12-27T07:27:32.099Z,14.07
2016-12-27T07:28:42.708Z,13.96
2016-12-27T07:29:53.282Z,14.02
2016-12-27T07:31:03.851Z,14.04
2016-12-27T07:32:14.752Z,14.03
2016-12-27T07:33:25.669Z,14.03
2016-12-27T07:34:35.938Z,13.95
2016-12-27T07:35:46.855Z,14.1
2016-12-27T07:36:57.769Z,13.96
2016-12-27T07:38:08.686Z,14.04
2016-12-27T07:39:19.247Z,14.02
2016-12-27T07:40:30.216Z,13.99
2016-12-27T07:41:41.149Z,14.02
2016-12-27T07:42:52.066Z,14
2016-12-27T07:44:02.976Z,14.04
2016-12-27T07:45:13.541Z,13.99
2016-12-27T07:46:24.507Z,14.04
2016-12-27T07:47:35.427Z,14.07
2016-12-27T07:48:45.993Z,14.02
2016-12-27T07:49:56.902Z,14.1
2016-12-27T07:51:07.819Z,14.04
2016-12-27T07:52:18.764Z,13.97
2016-12-27T07:53:29.669Z,14.14
2016-12-27T07:54:40.238Z,14.06
2016-12-27T07:55:50.456Z,14.04
2016-12-27T07:57:01.357Z,14.07
2016-12-27T07:58:11.974Z,14.02
2016-12-27T07:59:22.883Z,14.07
2016-12-27T08:00:33.481Z,14.02
2016-12-27T08:01:44.069Z,14.03
2016-12-27T08:02:54.639Z,14.07
2016-12-27T08:04:05.600Z,14.07
2016-12-27T08:05:16.165Z,14.1
2016-12-27T08:06:26.733Z,14.1
2016-12-27T08:07:37.643Z,14.09
2016-12-27T08:08:48.576Z,14.18
2016-12-27T08:09:59.557Z,14.09
2016-12-27T08:11:10.126Z,14.17
2016-12-27T08:12:20.692Z,14.02
2016-12-27T08:13:31.589Z,14.15
2016-12-27T08:14:42.166Z,14.18
2016-12-27T08:15:52.775Z,14.02
2016-12-27T08:17:03.340Z,14.07
2016-12-27T08:18:13.921Z,14.09
2016-12-27T08:19:24.827Z,14.09
2016-12-27T08:20:35.392Z,14.06
2016-12-27T08:21:46.349Z,14.09
2016-12-27T08:22:56.574Z,14.17
2016-12-27T08:24:07.172Z,14.07
2016-12-27T08:25:17.732Z,14.12
2016-12-27T08:26:28.635Z,14.15
2016-12-27T08:27:39.595Z,14.12
2016-12-27T08:28:50.192Z,14.18
2016-12-27T08:30:00.778Z,14.14
2016-12-27T08:31:11.339Z,14.1
2016-12-27T08:32:22.236Z,14.15
2016-12-27T08:33:33.185Z,14.12
2016-12-27T08:34:43.747Z,14.17
2016-12-27T08:35:54.332Z,14.15
2016-12-27T08:37:04.905Z,14.24
2016-12-27T08:38:15.798Z,14.17
2016-12-27T08:39:26.407Z,14.24
2016-12-27T08:40:37.344Z,14.22
2016-12-27T08:41:48.249Z,14.09
2016-12-27T08:42:59.155Z,14.15
2016-12-27T08:44:10.068Z,14.17
2016-12-27T08:45:20.685Z,14.18
2016-12-27T08:46:31.590Z,14.12
2016-12-27T08:47:42.188Z,14.2
2016-12-27T08:48:53.101Z,14.27
2016-12-27T08:50:03.654Z,14.33
2016-12-27T08:51:14.612Z,14.32
2016-12-27T08:52:25.529Z,14.35
2016-12-27T08:53:36.426Z,14.33
2016-12-27T08:54:46.995Z,14.33
2016-12-27T08:55:57.560Z,14.37
2016-12-27T08:57:08.178Z,14.21
2016-12-27T08:58:18.763Z,14.32
2016-12-27T08:59:29.336Z,14.39
2016-12-27T09:00:39.929Z,14.29
2016-12-27T09:01:50.491Z,14.36
2016-12-27T09:03:01.448Z,14.4
2016-12-27T09:04:12.361Z,14.39
2016-12-27T09:05:23.266Z,14.4
2016-12-27T09:06:33.491Z,14.45
2016-12-27T09:07:44.059Z,14.45
2016-12-27T09:08:55.014Z,14.42
2016-12-27T09:10:05.919Z,14.42
2016-12-27T09:11:16.484Z,14.42
2016-12-27T09:12:27.402Z,14.43
2016-12-27T09:13:38.311Z,14.5
2016-12-27T09:14:49.272Z,14.5
2016-12-27T09:16:00.187Z,14.51
2016-12-27T09:17:10.762Z,14.43
2016-12-27T09:18:21.331Z,14.54
2016-12-27T09:19:32.241Z,14.45
2016-12-27T09:20:43.196Z,14.57
2016-12-27T09:21:54.103Z,14.52
2016-12-27T09:23:04.700Z,14.43
2016-12-27T09:24:15.265Z,14.51
2016-12-27T09:25:25.831Z,14.54
2016-12-27T09:26:36.783Z,14.52
2016-12-27T09:27:47.352Z,14.51
2016-12-27T09:28:57.922Z,14.6
2016-12-27T09:30:08.823Z,14.6
2016-12-27T09:31:19.388Z,14.52
2016-12-27T09:32:30.341Z,14.46
2016-12-27T09:33:41.251Z,14.52
2016-12-27T09:34:51.807Z,14.51
2016-12-27T09:36:02.369Z,14.52
2016-12-27T09:37:12.938Z,14.57
2016-12-27T09:38:23.903Z,14.57
2016-12-27T09:39:34.811Z,14.51
2016-12-27T09:40:45.377Z,14.55
2016-12-27T09:41:56.287Z,14.43
2016-12-27T09:43:07.195Z,14.58
2016-12-27T09:44:17.808Z,14.46
2016-12-27T09:45:28.717Z,14.61
2016-12-27T09:46:39.630Z,14.6
2016-12-27T09:47:50.539Z,14.61
2016-12-27T09:49:01.452Z,14.54
2016-12-27T09:50:12.406Z,14.47
2016-12-27T09:51:22.967Z,14.58
2016-12-27T09:52:33.536Z,14.51
2016-12-27T09:53:44.113Z,14.57
2016-12-27T09:54:55.026Z,14.6
2016-12-27T09:56:05.640Z,14.6
2016-12-27T09:57:16.550Z,14.61
2016-12-27T09:58:27.466Z,14.68
2016-12-27T09:59:37.687Z,14.6
2016-12-27T10:00:48.596Z,14.62
2016-12-27T10:01:59.558Z,14.68
2016-12-27T10:03:10.478Z,14.68
2016-12-27T10:04:21.376Z,14.62
2016-12-27T10:05:31.946Z,14.58
2016-12-27T10:06:42.851Z,14.68
2016-12-27T10:07:53.464Z,14.7
2016-12-27T10:09:04.377Z,14.68
2016-12-27T10:10:15.350Z,14.64
2016-12-27T10:11:26.259Z,14.65
2016-12-27T10:12:36.473Z,14.7
2016-12-27T10:13:47.078Z,14.68
2016-12-27T10:14:57.639Z,14.7
2016-12-27T10:16:08.544Z,14.77
2016-12-27T10:17:19.103Z,14.65
2016-12-27T10:18:29.674Z,14.69
2016-12-27T10:19:40.292Z,14.7
2016-12-27T10:20:50.853Z,14.72
2016-12-27T10:22:01.426Z,14.72
2016-12-27T10:23:12.359Z,14.86
2016-12-27T10:24:22.924Z,14.73
2016-12-27T10:25:33.885Z,14.72
2016-12-27T10:26:44.442Z,14.78
2016-12-27T10:27:55.339Z,14.7
2016-12-27T10:29:05.560Z,14.72
2016-12-27T10:30:16.117Z,14.83
2016-12-27T10:31:26.726Z,14.65
2016-12-27T10:32:37.636Z,14.7
2016-12-27T10:33:48.548Z,14.7
2016-12-27T10:34:59.106Z,14.64
2016-12-27T10:36:10.019Z,14.69
2016-12-27T10:37:20.984Z,14.72
2016-12-27T10:38:31.205Z,14.62
2016-12-27T10:39:42.109Z,14.64
2016-12-27T10:40:53.053Z,14.7
2016-12-27T10:42:03.624Z,14.75
2016-12-27T10:43:14.577Z,14.65
2016-12-27T10:44:25.146Z,14.72
2016-12-27T10:45:36.055Z,14.64
2016-12-27T10:46:46.628Z,14.65
2016-12-27T10:47:57.189Z,14.72
2016-12-27T10:49:08.150Z,14.77
2016-12-27T10:50:19.087Z,14.65
2016-12-27T10:51:29.996Z,14.68
2016-12-27T10:52:40.905Z,14.72
2016-12-27T10:53:51.478Z,14.75
2016-12-27T10:55:02.095Z,14.68
2016-12-27T10:56:13.004Z,14.7
2016-12-27T10:57:23.917Z,14.73
2016-12-27T10:58:34.495Z,14.69
2016-12-27T10:59:45.408Z,14.73
2016-12-27T11:00:56.516Z,14.7
2016-12-27T11:02:07.082Z,14.8
2016-12-27T11:03:17.986Z,14.69
2016-12-27T11:04:28.887Z,14.83
2016-12-27T11:05:39.792Z,14.73
2016-12-27T11:06:50.413Z,14.75
2016-12-27T11:08:01.322Z,14.77
2016-12-27T11:09:12.239Z,14.92
2016-12-27T11:10:22.796Z,14.89
2016-12-27T11:11:33.708Z,14.8
2016-12-27T11:12:44.674Z,14.78
2016-12-27T11:13:55.571Z,14.83
2016-12-27T11:15:06.479Z,14.84
2016-12-27T11:16:17.046Z,14.89
2016-12-27T11:17:27.613Z,14.84
2016-12-27T11:18:38.230Z,14.77
2016-12-27T11:19:49.143Z,14.88
2016-12-27T11:20:59.712Z,14.81
2016-12-27T11:22:10.613Z,14.94
2016-12-27T11:23:21.534Z,14.95
2016-12-27T11:24:32.151Z,14.81
2016-12-27T11:25:42.716Z,14.8
2016-12-27T11:26:53.637Z,14.77
2016-12-27T11:28:04.570Z,14.72
2016-12-27T11:29:15.131Z,14.78
2016-12-27T11:30:26.095Z,14.69
2016-12-27T11:31:37.001Z,14.77
2016-12-27T11:32:47.917Z,14.75
2016-12-27T11:33:58.487Z,14.86
2016-12-27T11:35:09.404Z,14.78
2016-12-27T11:36:20.357Z,14.83
2016-12-27T11:37:30.918Z,14.86
2016-12-27T11:38:41.819Z,14.89
2016-12-27T11:39:52.385Z,14.89
2016-12-27T11:41:03.293Z,14.86
2016-12-27T11:42:14.250Z,14.88
2016-12-27T11:43:24.819Z,14.92
2016-12-27T11:44:35.729Z,14.81
2016-12-27T11:45:45.961Z,14.88
2016-12-27T11:46:56.527Z,14.84
2016-12-27T11:48:07.152Z,14.88
2016-12-27T11:49:18.053Z,14.89
2016-12-27T11:50:28.618Z,14.88
2016-12-27T11:51:39.187Z,14.84
2016-12-27T11:52:49.752Z,14.88
2016-12-27T11:54:00.718Z,14.89
2016-12-27T11:55:11.286Z,14.81
2016-12-27T11:56:21.852Z,14.78
2016-12-27T11:57:32.768Z,14.89
2016-12-27T11:58:43.673Z,14.92
2016-12-27T11:59:54.318Z,14.84
2016-12-27T12:01:04.887Z,14.91
2016-12-27T12:02:15.457Z,14.94
2016-12-27T12:03:26.369Z,14.88
2016-12-27T12:04:36.935Z,14.91
2016-12-27T12:05:47.644Z,14.95
2016-12-27T12:06:57.869Z,14.94
2016-12-27T12:08:08.770Z,14.99
2016-12-27T12:09:19.675Z,14.91
2016-12-27T12:10:30.244Z,14.94
2016-12-27T12:11:40.865Z,14.91
2016-12-27T12:12:51.788Z,14.88
2016-12-27T12:14:02.696Z,14.91
2016-12-27T12:15:13.606Z,14.75
2016-12-27T12:16:24.166Z,14.81
2016-12-27T12:17:35.128Z,14.86
2016-12-27T12:18:46.041Z,14.86
2016-12-27T12:19:56.606Z,14.88
2016-12-27T12:21:07.515Z,14.73
2016-12-27T12:22:18.429Z,14.75
2016-12-27T12:23:29.038Z,14.7
2016-12-27T12:24:39.627Z,14.77
2016-12-27T12:25:50.536Z,14.86
2016-12-27T12:27:01.441Z,14.8
2016-12-27T12:28:12.355Z,14.8
2016-12-27T12:29:23.316Z,14.77
2016-12-27T12:30:33.882Z,14.77
2016-12-27T12:31:44.799Z,14.78
2016-12-27T12:32:55.708Z,14.62
2016-12-27T12:34:06.277Z,14.8
2016-12-27T12:35:17.234Z,14.78
2016-12-27T12:36:28.144Z,14.68
2016-12-27T12:37:38.713Z,14.78
2016-12-27T12:38:49.286Z,14.73
2016-12-27T12:40:00.187Z,14.69
2016-12-27T12:41:11.152Z,14.7
2016-12-27T12:42:21.717Z,14.73
2016-12-27T12:43:32.623Z,14.77
2016-12-27T12:44:43.536Z,14.64
2016-12-27T12:45:54.097Z,14.72
2016-12-27T12:47:05.058Z,14.73
2016-12-27T12:48:15.967Z,14.7
2016-12-27T12:49:26.872Z,14.69
2016-12-27T12:50:37.781Z,14.68
2016-12-27T12:51:48.347Z,14.7
2016-12-27T12:52:59.300Z,14.77
2016-12-27T12:54:09.865Z,14.75
2016-12-27T12:55:20.768Z,14.72
2016-12-27T12:56:31.679Z,14.68
2016-12-27T12:57:42.593Z,14.7
2016-12-27T12:58:53.222Z,14.73
2016-12-27T13:00:03.787Z,14.64
2016-12-27T13:01:14.704Z,14.72
2016-12-27T13:02:25.617Z,14.68
2016-12-27T13:03:36.179Z,14.65
2016-12-27T13:04:46.820Z,14.68
2016-12-27T13:05:57.737Z,14.62
2016-12-27T13:07:08.646Z,14.7
2016-12-27T13:08:19.211Z,14.69
2016-12-27T13:09:29.776Z,14.69
2016-12-27T13:10:40.389Z,14.65
2016-12-27T13:11:51.299Z,14.72
2016-12-27T13:13:02.200Z,14.72
2016-12-27T13:14:13.105Z,14.78
2016-12-27T13:15:23.662Z,14.61
2016-12-27T13:16:34.279Z,14.6
2016-12-27T13:17:44.848Z,14.68
2016-12-27T13:18:55.413Z,14.68
2016-12-27T13:20:06.011Z,14.61
2016-12-27T13:21:16.923Z,14.64
2016-12-27T13:22:27.529Z,14.65
2016-12-27T13:23:38.443Z,14.62
2016-12-27T13:24:49.359Z,14.7
2016-12-27T13:26:00.269Z,14.68
2016-12-27T13:27:11.190Z,14.62
2016-12-27T13:28:22.148Z,14.62
2016-12-27T13:29:33.065Z,14.68
2016-12-27T13:30:43.627Z,14.64
2016-12-27T13:31:54.535Z,14.64
2016-12-27T13:33:05.444Z,14.68
2016-12-27T13:34:16.058Z,14.64
2016-12-27T13:35:26.963Z,14.68
2016-12-27T13:36:37.872Z,14.68
2016-12-27T13:37:48.777Z,14.64
2016-12-27T13:38:59.351Z,14.62
2016-12-27T13:40:10.304Z,14.57
2016-12-27T13:41:21.209Z,14.64
2016-12-27T13:42:31.771Z,14.69
2016-12-27T13:43:42.680Z,14.69
2016-12-27T13:44:53.578Z,14.64
2016-12-27T13:46:04.295Z,14.58
2016-12-27T13:47:15.204Z,14.58
2016-12-27T13:48:25.778Z,14.58
2016-12-27T13:49:36.339Z,14.65
2016-12-27T13:50:46.560Z,14.58
2016-12-27T13:51:57.177Z,14.61
2016-12-27T13:53:08.091Z,14.6
2016-12-27T13:54:18.648Z,14.65
2016-12-27T13:55:29.217Z,14.65
2016-12-27T13:56:40.151Z,14.68
2016-12-27T13:57:51.116Z,14.69
2016-12-27T13:59:01.713Z,14.77
2016-12-27T14:00:12.630Z,14.68
2016-12-27T14:01:23.544Z,14.64
2016-12-27T14:02:34.449Z,14.75
2016-12-27T14:03:45.054Z,14.68
2016-12-27T14:04:55.956Z,14.77
2016-12-27T14:06:06.868Z,14.69
2016-12-27T14:07:17.434Z,14.65
2016-12-27T14:08:28.339Z,14.65
2016-12-27T14:09:38.964Z,14.62
2016-12-27T14:10:49.542Z,14.73
2016-12-27T14:12:00.447Z,14.69
2016-12-27T14:13:11.360Z,14.72
2016-12-27T14:14:22.273Z,14.64
2016-12-27T14:15:33.231Z,14.7
2016-12-27T14:16:43.803Z,14.69
2016-12-27T14:17:54.713Z,14.62
2016-12-27T14:19:05.615Z,14.64
2016-12-27T14:20:16.520Z,14.61
2016-12-27T14:21:27.137Z,14.61
2016-12-27T14:22:38.054Z,14.64
2016-12-27T14:23:48.952Z,14.6
2016-12-27T14:24:59.512Z,14.64
2016-12-27T14:26:10.087Z,14.6
2016-12-27T14:27:21.075Z,14.6
2016-12-27T14:28:31.986Z,14.6
2016-12-27T14:29:42.898Z,14.61
2016-12-27T14:30:53.472Z,14.6
2016-12-27T14:32:04.381Z,14.57
2016-12-27T14:33:15.338Z,14.6
2016-12-27T14:34:25.895Z,14.64
2016-12-27T14:35:36.469Z,14.58
2016-12-27T14:36:47.038Z,14.61
2016-12-27T14:37:57.951Z,14.52
2016-12-27T14:39:08.920Z,14.58
2016-12-27T14:40:19.138Z,14.45
2016-12-27T14:41:30.047Z,14.55
2016-12-27T14:42:40.944Z,14.57
2016-12-27T14:43:51.169Z,14.58
2016-12-27T14:45:01.787Z,14.43
2016-12-27T14:46:12.696Z,14.42
2016-12-27T14:47:23.613Z,14.46
2016-12-27T14:48:34.171Z,14.43
2016-12-27T14:49:44.392Z,14.54
2016-12-27T14:50:55.009Z,14.47
2016-12-27T14:52:05.923Z,14.5
2016-12-27T14:53:16.488Z,14.42
2016-12-27T14:54:27.053Z,14.45
2016-12-27T14:55:37.967Z,14.43
2016-12-27T14:56:48.928Z,14.39
2016-12-27T14:57:59.145Z,14.5
2016-12-27T14:59:09.714Z,14.42
2016-12-27T15:00:20.612Z,14.4
2016-12-27T15:01:31.521Z,14.47
2016-12-27T15:02:42.166Z,14.45
2016-12-27T15:03:53.071Z,14.37
2016-12-27T15:05:03.641Z,14.36
2016-12-27T15:06:14.210Z,14.33
2016-12-27T15:07:24.432Z,14.36
2016-12-27T15:08:35.385Z,14.4
2016-12-27T15:09:46.298Z,14.4
2016-12-27T15:10:57.212Z,14.39
2016-12-27T15:12:08.117Z,14.37
2016-12-27T15:13:18.678Z,14.45
2016-12-27T15:14:29.639Z,14.28
2016-12-27T15:15:40.205Z,14.4
2016-12-27T15:16:50.774Z,14.4
2016-12-27T15:18:01.679Z,14.4